Time;durP1;ratioP1;P1;durP2;ratioP2;P2;SDS_P1;SDS_P2;PMS_P1;PMS_P2;Temp;Humidity;BMP_temperature;BMP_pressure;BME280_temperature;BME280_humidity;BME280_pressure;Samples;Min_cycle;Max_cycle;Signal;HPM_P1;HPM_P2
2022/07/01 00:02:05;;;;;;;6.07;4.75;;;;;;;20.13;94.11;100457.28;4995857;28;20513;-89
2022/07/01 00:04:32;;;;;;;4.65;3.80;;;;;;;20.03;93.96;100469.34;4989531;28;21488;-88
2022/07/01 00:06:59;;;;;;;3.80;3.50;;;;;;;20.01;93.40;100476.50;4996456;28;20042;-89
2022/07/01 00:09:26;;;;;;;6.20;4.28;;;;;;;19.98;93.12;100480.19;4992392;28;20042;-87
2022/07/01 00:11:53;;;;;;;4.40;3.80;;;;;;;19.97;91.93;100488.25;4976807;28;20051;-88
2022/07/01 00:14:22;;;;;;;5.43;3.53;;;;;;;19.83;92.03;100486.31;4975605;28;20048;-89
2022/07/01 00:16:50;;;;;;;5.03;3.72;;;;;;;19.79;91.89;100492.66;4992504;28;20100;-89
2022/07/01 00:19:18;;;;;;;5.45;3.92;;;;;;;19.75;91.74;100504.38;4990602;28;20096;-88
2022/07/01 00:21:44;;;;;;;5.63;3.75;;;;;;;19.60;92.26;100506.84;4979087;28;20060;-88
2022/07/01 00:24:11;;;;;;;4.70;3.42;;;;;;;19.55;92.28;100500.91;4988351;28;20069;-88
2022/07/01 00:26:38;;;;;;;5.80;3.92;;;;;;;19.47;93.36;100501.28;4975547;28;20835;-88
2022/07/01 00:29:05;;;;;;;4.40;3.08;;;;;;;19.46;93.18;100507.53;4993389;28;21199;-87
2022/07/01 00:31:33;;;;;;;3.38;2.70;;;;;;;19.49;92.80;100514.50;4991594;28;20048;-88
2022/07/01 00:33:59;;;;;;;3.97;2.75;;;;;;;19.49;92.05;100518.00;4991397;28;20097;-88
2022/07/01 00:36:26;;;;;;;5.22;2.50;;;;;;;19.44;90.97;100514.72;5008207;28;20137;-90
2022/07/01 00:38:53;;;;;;;2.45;2.25;;;;;;;19.37;90.80;100531.84;4989204;28;20038;-89
2022/07/01 00:41:19;;;;;;;2.35;1.83;;;;;;;19.34;90.09;100532.00;4989462;28;20046;-88
2022/07/01 00:43:48;;;;;;;2.05;1.95;;;;;;;19.27;90.12;100531.44;4986809;28;20053;-89
2022/07/01 00:46:15;;;;;;;8.32;2.70;;;;;;;19.13;90.94;100528.56;4989120;28;20501;-88
2022/07/01 00:48:44;;;;;;;3.53;2.00;;;;;;;19.05;91.56;100531.59;4977809;28;20041;-88
2022/07/01 00:51:13;;;;;;;3.03;2.70;;;;;;;19.08;91.88;100535.88;4972098;28;20499;-87
2022/07/01 00:53:40;;;;;;;3.88;3.38;;;;;;;19.01;92.16;100530.84;4969836;28;20139;-88
2022/07/01 00:56:07;;;;;;;3.33;2.97;;;;;;;18.93;93.30;100529.47;4990553;28;20058;-88
2022/07/01 00:58:35;;;;;;;4.85;3.92;;;;;;;18.84;94.14;100526.28;4993024;28;20129;-87
2022/07/01 01:01:02;;;;;;;3.60;3.30;;;;;;;18.81;94.41;100536.19;4993270;28;20068;-89
2022/07/01 01:03:29;;;;;;;5.53;4.50;;;;;;;18.74;94.52;100524.16;4988922;28;20169;-89
2022/07/01 01:05:56;;;;;;;4.47;4.07;;;;;;;18.64;95.19;100528.97;4996791;28;20455;-88
2022/07/01 01:08:25;;;;;;;4.43;4.07;;;;;;;18.56;95.66;100531.97;4961418;28;20057;-88
2022/07/01 01:10:56;;;;;;;4.97;4.45;;;;;;;18.42;96.75;100553.81;4993365;28;20042;-88
2022/07/01 01:13:26;;;;;;;5.53;4.95;;;;;;;18.22;97.95;100553.78;4989700;28;20092;-90
2022/07/01 01:15:53;;;;;;;7.90;5.20;;;;;;;18.11;98.70;100560.41;4960486;28;20049;-88
2022/07/01 01:18:19;;;;;;;5.03;4.53;;;;;;;17.94;100.00;100568.16;4977323;28;20041;-89
2022/07/01 01:20:46;;;;;;;5.50;4.72;;;;;;;17.81;100.00;100560.72;4996503;28;20058;-87
2022/07/01 01:23:13;;;;;;;5.97;5.13;;;;;;;17.81;100.00;100559.84;4976021;28;20327;-89
2022/07/01 01:25:40;;;;;;;5.82;5.10;;;;;;;17.76;100.00;100562.69;4977216;28;20105;-89
2022/07/01 01:28:07;;;;;;;7.50;5.28;;;;;;;17.69;100.00;100571.78;4985033;28;20149;-88
2022/07/01 01:30:35;;;;;;;6.90;4.53;;;;;;;17.66;100.00;100566.63;5009395;28;20108;-86
2022/07/01 01:33:02;;;;;;;4.57;4.15;;;;;;;17.55;100.00;100571.47;4985148;28;20123;-88
2022/07/01 01:35:31;;;;;;;3.95;3.65;;;;;;;17.52;99.91;100562.75;4976037;28;20069;-89
2022/07/01 01:37:58;;;;;;;2.83;2.72;;;;;;;17.52;99.17;100559.22;4989734;28;21191;-88
2022/07/01 01:40:25;;;;;;;2.90;2.70;;;;;;;17.47;98.50;100554.13;4990535;28;20081;-88
2022/07/01 01:42:53;;;;;;;3.22;2.90;;;;;;;17.50;98.29;100569.00;4989447;28;20038;-89
2022/07/01 01:45:20;;;;;;;3.28;3.08;;;;;;;17.49;98.39;100567.28;4991250;28;20041;-88
2022/07/01 01:47:48;;;;;;;3.65;3.30;;;;;;;17.42;99.14;100564.03;4976340;28;20501;-89
2022/07/01 01:50:15;;;;;;;6.05;3.17;;;;;;;17.40;99.10;100563.22;4989594;28;20042;-88
2022/07/01 01:52:43;;;;;;;4.63;2.80;;;;;;;17.46;98.50;100576.19;4986410;28;20061;-88
2022/07/01 01:55:11;;;;;;;3.50;3.22;;;;;;;17.49;98.41;100593.75;4959362;28;20104;-89
2022/07/01 01:57:38;;;;;;;4.95;3.70;;;;;;;17.44;98.49;100596.59;4993889;28;20096;-89
2022/07/01 02:00:12;;;;;;;2.45;2.35;;;;;;;17.45;98.66;100598.28;4993609;28;20472;-87
2022/07/01 02:02:39;;;;;;;4.45;2.50;;;;;;;17.45;97.88;100613.31;4979655;28;20076;-88
2022/07/01 02:05:13;;;;;;;3.40;2.80;;;;;;;17.41;97.23;100617.00;5008665;28;20038;-88
2022/07/01 02:07:40;;;;;;;3.10;2.42;;;;;;;17.39;97.00;100616.19;4990046;28;20084;-88
2022/07/01 02:10:08;;;;;;;2.45;2.25;;;;;;;17.35;96.60;100626.03;4990497;28;20053;-89
2022/07/01 02:12:35;;;;;;;5.00;2.33;;;;;;;17.33;96.36;100627.88;4989431;28;20050;-88
2022/07/01 02:15:03;;;;;;;2.83;2.20;;;;;;;17.30;96.47;100628.84;4990710;28;20048;-89
2022/07/01 02:17:29;;;;;;;2.30;2.20;;;;;;;17.25;96.56;100630.81;4991230;28;20042;-88
2022/07/01 02:19:59;;;;;;;3.45;2.53;;;;;;;17.23;96.18;100621.19;4975373;28;20086;-87
2022/07/01 02:22:26;;;;;;;3.58;2.10;;;;;;;17.15;96.59;100630.28;5007686;28;20202;-89
2022/07/01 02:24:53;;;;;;;2.08;1.63;;;;;;;17.09;96.91;100627.00;4990325;28;20042;-87
2022/07/01 02:27:20;;;;;;;1.50;1.40;;;;;;;17.06;97.28;100625.31;4973751;28;20061;-88
2022/07/01 02:29:47;;;;;;;1.40;0.95;;;;;;;17.09;96.85;100621.69;4994024;28;20125;-88
2022/07/01 02:32:14;;;;;;;1.20;1.05;;;;;;;17.11;96.14;100630.47;4989273;28;20514;-88
2022/07/01 02:34:41;;;;;;;1.65;0.90;;;;;;;17.08;96.14;100646.41;4974540;28;20041;-87
2022/07/01 02:37:08;;;;;;;0.98;0.90;;;;;;;17.01;96.41;100646.66;4975068;28;20061;-89
2022/07/01 02:39:36;;;;;;;2.05;1.40;;;;;;;16.99;96.42;100648.47;4977070;28;20037;-88
2022/07/01 02:44:48;;;;;;;1.80;1.42;;;;;;;16.99;96.83;100634.41;4988384;28;20042;-89
2022/07/01 02:47:14;;;;;;;1.75;1.25;;;;;;;16.94;96.70;100639.84;4994728;28;20038;-88
2022/07/01 02:49:41;;;;;;;1.45;1.27;;;;;;;16.81;97.49;100643.81;4988547;28;20082;-87
2022/07/01 02:52:09;;;;;;;2.97;2.00;;;;;;;16.80;97.23;100656.16;4975062;28;20063;-88
2022/07/01 02:54:38;;;;;;;3.63;1.80;;;;;;;16.79;95.62;100669.44;4975521;28;20744;-88
2022/07/01 02:57:05;;;;;;;5.22;2.15;;;;;;;16.67;96.30;100670.72;4988417;28;20483;-88
2022/07/01 02:59:34;;;;;;;4.10;2.13;;;;;;;16.57;97.27;100666.66;4974054;28;20080;-88
2022/07/01 03:02:01;;;;;;;2.10;2.00;;;;;;;16.56;97.38;100652.59;4991701;28;20053;-89
2022/07/01 03:04:28;;;;;;;2.38;2.17;;;;;;;16.57;96.73;100651.69;4988583;28;20119;-88
2022/07/01 03:06:55;;;;;;;2.90;2.42;;;;;;;16.61;96.46;100655.94;4975768;28;20124;-87
2022/07/01 03:09:22;;;;;;;3.20;2.88;;;;;;;16.52;96.05;100678.25;5010722;28;20121;-89
2022/07/01 03:11:49;;;;;;;2.88;2.50;;;;;;;16.46;95.89;100683.75;4993593;28;20054;-88
2022/07/01 03:14:19;;;;;;;3.85;2.33;;;;;;;16.45;95.84;100697.88;4973406;28;20295;-87
2022/07/01 03:16:50;;;;;;;3.10;2.88;;;;;;;16.49;95.60;100714.47;4974712;28;20069;-88
2022/07/01 03:19:17;;;;;;;3.63;3.20;;;;;;;16.46;96.36;100723.38;4988880;28;20061;-88
2022/07/01 03:21:43;;;;;;;3.20;2.90;;;;;;;16.33;97.17;100724.69;4985221;28;20108;-89
2022/07/01 03:24:12;;;;;;;2.95;2.70;;;;;;;16.25;98.00;100734.66;4985938;28;20038;-88
2022/07/01 03:26:39;;;;;;;2.63;2.42;;;;;;;16.09;99.44;100737.75;4973788;28;20061;-88
2022/07/01 03:29:06;;;;;;;3.20;2.58;;;;;;;16.02;100.00;100746.75;4993115;28;20516;-88
2022/07/01 03:31:32;;;;;;;3.67;2.15;;;;;;;15.97;100.00;100752.19;4981174;28;20103;-88
2022/07/01 03:34:00;;;;;;;2.92;2.70;;;;;;;15.88;100.00;100750.69;4991960;28;20038;-89
2022/07/01 03:36:27;;;;;;;4.43;2.78;;;;;;;15.90;100.00;100755.91;4986262;28;20048;-89
2022/07/01 03:38:56;;;;;;;3.50;2.25;;;;;;;15.90;100.00;100773.53;4954071;28;20073;-89
2022/07/01 03:41:23;;;;;;;3.25;2.10;;;;;;;15.90;100.00;100784.09;4972922;28;20065;-89
2022/07/01 03:43:50;;;;;;;2.58;2.13;;;;;;;15.82;100.00;100794.88;4985376;28;20213;-90
2022/07/01 03:46:17;;;;;;;2.47;1.80;;;;;;;15.73;100.00;100795.09;4990361;28;20077;-88
2022/07/01 03:48:43;;;;;;;2.13;1.95;;;;;;;15.68;100.00;100792.59;4975316;28;20488;-88
2022/07/01 03:51:10;;;;;;;2.53;2.10;;;;;;;15.67;100.00;100781.19;4971921;28;20054;-88
2022/07/01 03:56:23;;;;;;;1.30;1.30;;;;;;;15.68;99.68;100787.31;4989670;28;20049;-88
2022/07/01 03:58:54;;;;;;;3.00;1.40;;;;;;;15.64;99.86;100786.50;4988933;28;20046;-88
2022/07/01 04:01:21;;;;;;;2.17;0.90;;;;;;;15.65;99.32;100795.31;5006122;28;20030;-88
2022/07/01 04:03:48;;;;;;;2.33;1.25;;;;;;;15.62;100.00;100792.75;4967857;28;20046;-87
2022/07/01 04:06:15;;;;;;;2.45;1.35;;;;;;;15.54;100.00;100801.75;4952366;28;20050;-88
2022/07/01 04:08:42;;;;;;;5.18;1.58;;;;;;;15.35;100.00;100792.59;4985389;28;20052;-87
2022/07/01 04:11:09;;;;;;;2.35;1.35;;;;;;;15.15;100.00;100793.13;4967245;28;20046;-89
2022/07/01 04:13:38;;;;;;;3.75;1.98;;;;;;;14.98;100.00;100799.69;4966400;28;20084;-87
2022/07/01 04:16:05;;;;;;;3.38;1.60;;;;;;;14.98;100.00;100804.09;4969898;28;20835;-87
2022/07/01 04:18:35;;;;;;;1.45;1.35;;;;;;;14.98;100.00;100804.97;4985425;28;20044;-87
2022/07/01 04:23:47;;;;;;;3.42;1.23;;;;;;;14.93;100.00;100805.97;4985045;28;20041;-87
2022/07/01 04:26:16;;;;;;;2.67;1.15;;;;;;;14.91;100.00;100806.00;4990551;28;20100;-88
2022/07/01 04:28:50;;;;;;;3.38;1.77;;;;;;;14.95;100.00;100807.66;4992959;28;20519;-89
2022/07/01 04:31:18;;;;;;;2.78;1.42;;;;;;;15.03;100.00;100807.47;4988811;28;20046;-88
2022/07/01 04:33:46;;;;;;;2.38;1.40;;;;;;;15.10;100.00;100797.66;4989475;28;20064;-88
2022/07/01 04:36:13;;;;;;;2.42;1.80;;;;;;;15.17;100.00;100797.44;4986549;28;20199;-86
2022/07/01 04:38:39;;;;;;;2.17;1.90;;;;;;;15.29;100.00;100788.38;4985449;28;20195;-87
2022/07/01 04:43:51;;;;;;;2.20;1.67;;;;;;;15.40;100.00;100796.00;4991524;28;20038;-88
2022/07/01 04:46:18;;;;;;;2.58;1.48;;;;;;;15.48;100.00;100791.34;4988578;28;20050;-87
2022/07/01 04:48:44;;;;;;;3.40;1.83;;;;;;;15.51;100.00;100806.25;4991611;28;20045;-88
2022/07/01 04:51:14;;;;;;;4.72;1.75;;;;;;;15.50;100.00;100809.78;4985681;28;20068;-87
2022/07/01 04:53:47;;;;;;;2.63;1.60;;;;;;;15.52;100.00;100814.09;4972255;28;20058;-86
2022/07/01 04:56:16;;;;;;;4.82;1.25;;;;;;;15.57;100.00;100816.63;4974120;28;20104;-86
2022/07/01 04:58:43;;;;;;;4.97;1.85;;;;;;;15.59;100.00;100822.75;4972491;28;20042;-89
2022/07/01 05:01:13;;;;;;;4.10;1.73;;;;;;;15.63;100.00;100826.16;4987866;28;20050;-87
2022/07/01 05:03:40;;;;;;;2.05;1.50;;;;;;;15.64;100.00;100820.81;4969221;28;20050;-86
2022/07/01 05:06:07;;;;;;;2.70;1.88;;;;;;;15.70;100.00;100822.44;4971045;28;20057;-86
2022/07/01 05:08:34;;;;;;;1.38;1.27;;;;;;;15.57;100.00;100824.56;4987313;28;20045;-86
2022/07/01 05:11:03;;;;;;;2.22;1.50;;;;;;;15.55;100.00;100821.06;4967087;28;20102;-87
2022/07/01 05:13:29;;;;;;;2.42;1.42;;;;;;;15.54;100.00;100825.50;4987777;28;20057;-87
2022/07/01 05:15:56;;;;;;;3.67;1.20;;;;;;;15.59;100.00;100827.16;4971490;28;20046;-85
2022/07/01 05:23:52;;;;;;;1.88;1.48;;;;;;;15.77;100.00;100807.31;4990082;28;20041;-87
2022/07/01 05:26:21;;;;;;;1.85;1.70;;;;;;;15.74;100.00;100815.31;4975486;28;20038;-87
2022/07/01 05:28:54;;;;;;;3.00;2.15;;;;;;;15.76;100.00;100818.75;4990403;28;20056;-86
2022/07/01 05:31:21;;;;;;;2.20;2.03;;;;;;;15.79;100.00;100821.34;4975756;28;20060;-88
2022/07/01 05:33:49;;;;;;;2.88;2.00;;;;;;;15.83;99.83;100821.22;4977752;28;20065;-87
2022/07/01 05:36:16;;;;;;;2.63;1.98;;;;;;;15.83;99.59;100823.00;4978511;28;20034;-87
2022/07/01 05:38:43;;;;;;;4.22;2.38;;;;;;;15.78;99.11;100820.44;4997825;28;20046;-87
2022/07/01 05:41:10;;;;;;;2.50;2.38;;;;;;;15.76;99.15;100817.00;4996339;28;20443;-88
2022/07/01 05:43:37;;;;;;;3.03;2.80;;;;;;;15.75;98.45;100830.22;4998725;28;20042;-85
2022/07/01 05:46:03;;;;;;;2.78;2.42;;;;;;;15.76;99.15;100839.88;4999600;28;20033;-86
2022/07/01 05:48:33;;;;;;;3.13;2.92;;;;;;;15.80;98.68;100846.81;4994237;28;20142;-88
2022/07/01 05:51:02;;;;;;;6.22;3.58;;;;;;;15.77;98.10;100842.47;4979321;28;20173;-87
2022/07/01 05:53:29;;;;;;;5.07;3.40;;;;;;;15.79;97.64;100843.31;4990566;28;20050;-89
2022/07/01 05:55:56;;;;;;;3.42;3.22;;;;;;;15.71;97.12;100858.50;4970107;28;20618;-87
2022/07/01 05:58:23;;;;;;;3.97;3.63;;;;;;;15.64;97.73;100873.59;4970514;28;20045;-85
2022/07/01 06:00:50;;;;;;;3.15;2.90;;;;;;;15.65;98.05;100880.63;4991252;28;20060;-88
2022/07/01 06:03:17;;;;;;;3.80;3.03;;;;;;;15.69;98.57;100876.97;4969489;28;20128;-86
2022/07/01 06:05:46;;;;;;;4.10;3.70;;;;;;;15.76;97.68;100890.03;4989241;28;20045;-87
2022/07/01 06:08:13;;;;;;;3.25;3.05;;;;;;;15.82;97.76;100881.97;4992284;28;22805;-86
2022/07/01 06:10:40;;;;;;;6.20;3.85;;;;;;;15.86;96.97;100878.34;4974802;28;20182;-88
2022/07/01 06:13:10;;;;;;;4.15;3.53;;;;;;;15.94;96.53;100872.84;5005068;28;20045;-87
2022/07/01 06:15:37;;;;;;;5.85;3.33;;;;;;;16.04;96.42;100867.28;4991953;28;20053;-87
2022/07/01 06:18:07;;;;;;;10.30;3.63;;;;;;;16.20;95.24;100880.91;4989265;28;20741;-85
2022/07/01 06:20:34;;;;;;;3.08;2.78;;;;;;;16.29;93.41;100871.84;4973921;28;20034;-85
2022/07/01 06:23:01;;;;;;;3.90;3.53;;;;;;;16.31;94.07;100856.81;4986129;28;20056;-86
2022/07/01 06:25:27;;;;;;;6.72;4.00;;;;;;;16.36;93.24;100857.56;4989197;28;20493;-88
2022/07/01 06:27:56;;;;;;;3.85;3.47;;;;;;;16.40;92.54;100862.75;4974204;28;20141;-86
2022/07/01 06:30:26;;;;;;;5.93;3.92;;;;;;;16.38;92.22;100846.94;4993485;28;20053;-88
2022/07/01 06:32:53;;;;;;;4.95;4.03;;;;;;;16.35;91.06;100832.03;4988166;28;20038;-88
2022/07/01 06:35:19;;;;;;;3.92;3.00;;;;;;;16.34;92.13;100832.94;4988558;28;20040;-86
2022/07/01 06:37:46;;;;;;;4.30;3.45;;;;;;;16.42;91.38;100850.34;4990058;28;20175;-87
2022/07/01 06:40:13;;;;;;;4.50;4.03;;;;;;;16.43;91.59;100846.81;4974363;28;20071;-87
2022/07/01 06:42:41;;;;;;;3.67;3.38;;;;;;;16.42;90.89;100850.34;4974502;28;20045;-88
2022/07/01 06:45:14;;;;;;;4.63;4.00;;;;;;;16.53;90.36;100857.03;4987860;28;20033;-90
2022/07/01 06:47:41;;;;;;;10.75;4.47;;;;;;;16.64;89.58;100877.84;4990630;28;20037;-87
2022/07/01 06:50:09;;;;;;;5.18;4.07;;;;;;;16.76;88.19;100873.09;4973913;28;20115;-87
2022/07/01 06:52:36;;;;;;;4.32;3.90;;;;;;;16.87;88.22;100865.72;4989275;28;20657;-87
2022/07/01 06:55:03;;;;;;;4.88;4.38;;;;;;;17.00;86.40;100867.06;4958759;28;20038;-87
2022/07/01 06:57:33;;;;;;;4.47;4.13;;;;;;;17.05;85.40;100887.22;4972982;28;20050;-85
2022/07/01 07:00:05;;;;;;;4.47;4.07;;;;;;;17.05;86.23;100896.00;4991214;28;20124;-87
2022/07/01 07:02:33;;;;;;;5.78;3.92;;;;;;;16.98;85.83;100891.84;4972260;28;20445;-87
2022/07/01 07:05:00;;;;;;;5.05;3.83;;;;;;;17.00;86.17;100884.69;4990762;28;20122;-87
2022/07/01 07:07:27;;;;;;;5.05;3.55;;;;;;;17.11;85.07;100898.44;4976255;28;20621;-86
2022/07/01 07:09:57;;;;;;;5.45;4.38;;;;;;;17.15;84.90;100894.78;4989849;28;20497;-87
2022/07/01 07:12:25;;;;;;;4.65;4.10;;;;;;;17.16;85.05;100900.97;4984573;28;20899;-86
2022/07/01 07:15:00;;;;;;;5.05;4.55;;;;;;;17.08;84.94;100895.91;4976342;28;20294;-88
2022/07/01 07:17:50;;;;;;;4.22;3.83;;;;;;;16.99;86.35;100883.84;4994391;28;20061;-86
2022/07/01 07:20:17;;;;;;;4.60;4.10;;;;;;;16.92;85.75;100886.72;4988919;28;20851;-87
2022/07/01 07:22:44;;;;;;;6.05;4.50;;;;;;;16.76;88.32;100892.47;4971971;28;20080;-89
2022/07/01 07:25:11;;;;;;;5.60;5.00;;;;;;;16.66;87.36;100891.91;4974993;28;20065;-89
2022/07/01 07:27:46;;;;;;;5.22;4.72;;;;;;;16.51;89.43;100897.63;4975672;28;20440;-88
2022/07/01 07:30:17;;;;;;;5.88;5.05;;;;;;;16.46;90.45;100907.47;4972732;28;20049;-87
2022/07/01 07:32:45;;;;;;;5.13;4.72;;;;;;;16.37;90.40;100928.00;4987258;28;20037;-88
2022/07/01 07:35:20;;;;;;;6.50;5.88;;;;;;;16.24;91.85;100941.56;4987523;28;20050;-88
2022/07/01 07:37:50;;;;;;;7.90;5.68;;;;;;;16.18;92.48;100939.97;4988420;28;20579;-87
2022/07/01 07:40:19;;;;;;;5.30;4.80;;;;;;;16.03;94.22;100962.38;4974752;28;20049;-88
2022/07/01 07:42:52;;;;;;;6.32;5.80;;;;;;;15.95;94.92;100969.66;4971918;28;20641;-87
2022/07/01 07:45:21;;;;;;;8.35;5.82;;;;;;;15.87;95.85;100983.91;4971586;28;20132;-88
2022/07/01 07:47:54;;;;;;;7.22;6.18;;;;;;;15.80;96.74;100991.97;4974762;28;20077;-89
2022/07/01 07:50:26;;;;;;;6.22;5.68;;;;;;;15.70;97.26;100994.00;4983702;28;20041;-84
2022/07/01 07:52:54;;;;;;;9.05;8.15;;;;;;;15.67;96.96;101001.97;4986193;28;20058;-85
2022/07/01 07:55:24;;;;;;;7.10;6.38;;;;;;;15.66;97.97;100995.84;4984489;28;20583;-87
2022/07/01 07:57:52;;;;;;;7.28;6.63;;;;;;;15.70;97.78;100981.66;4972211;28;20057;-88
2022/07/01 08:00:24;;;;;;;8.05;6.60;;;;;;;15.78;96.53;100976.19;4985531;28;20915;-90
2022/07/01 08:02:55;;;;;;;7.28;6.53;;;;;;;15.83;96.24;100974.31;4986702;28;20156;-88
2022/07/01 08:05:23;;;;;;;7.63;5.63;;;;;;;15.99;96.09;100977.44;4998508;28;20377;-89
2022/07/01 08:07:52;;;;;;;7.28;6.20;;;;;;;16.10;93.86;100984.19;4971258;28;20449;-88
2022/07/01 08:10:19;;;;;;;8.38;6.18;;;;;;;16.06;93.11;100990.47;4955769;28;20389;-87
2022/07/01 08:12:50;;;;;;;17.83;7.05;;;;;;;15.95;93.12;100998.69;4970941;28;20322;-87
2022/07/01 08:15:18;;;;;;;6.68;6.05;;;;;;;15.92;93.87;101001.38;4972919;28;20141;-88
2022/07/01 08:17:49;;;;;;;8.52;6.47;;;;;;;16.01;93.33;100999.38;4985976;28;20056;-88
2022/07/01 08:20:22;;;;;;;6.68;6.07;;;;;;;16.12;91.56;100990.31;4970210;28;20044;-89
2022/07/01 08:22:50;;;;;;;5.47;5.00;;;;;;;16.20;91.03;100975.13;4989035;28;20050;-87
2022/07/01 08:25:17;;;;;;;7.07;5.25;;;;;;;16.21;91.29;100976.88;5004897;28;20049;-87
2022/07/01 08:27:45;;;;;;;7.18;6.43;;;;;;;16.26;91.69;100982.03;4990287;28;20045;-87
2022/07/01 08:30:15;;;;;;;7.72;6.53;;;;;;;16.28;91.06;100978.44;4986518;28;20458;-88
2022/07/01 08:32:43;;;;;;;6.65;6.15;;;;;;;16.34;90.03;100977.41;5001987;28;20049;-89
2022/07/01 08:35:10;;;;;;;6.28;5.78;;;;;;;16.32;90.28;100976.56;4984191;28;20069;-88
2022/07/01 08:37:39;;;;;;;9.93;6.63;;;;;;;16.36;89.59;100981.72;4986985;28;20143;-88
2022/07/01 08:40:11;;;;;;;7.03;5.88;;;;;;;16.48;88.47;100969.09;4970122;28;20107;-87
2022/07/01 08:42:47;;;;;;;6.07;5.53;;;;;;;16.54;88.55;100980.34;4987161;28;20539;-87
2022/07/01 08:45:15;;;;;;;6.15;5.55;;;;;;;16.65;87.14;100989.75;4986742;28;20057;-87
2022/07/01 08:48:02;;;;;;;5.82;5.28;;;;;;;16.76;87.27;100982.34;4987835;28;20030;-87
2022/07/01 08:50:40;;;;;;;6.88;6.18;;;;;;;16.90;85.79;100981.09;4982212;28;20037;-86
2022/07/01 08:53:09;;;;;;;5.53;5.07;;;;;;;16.76;86.26;100992.91;4980686;28;20078;-86
2022/07/01 08:56:40;;;;;;;6.63;5.93;;;;;;;16.82;84.06;100987.47;4983872;28;20049;-87
2022/07/01 08:58:39;;;;;;;5.82;5.13;;;;;;;16.64;86.92;100994.16;4987268;28;20049;-86
2022/07/01 09:01:22;;;;;;;6.25;5.75;;;;;;;16.67;86.39;100999.38;4988327;28;20196;-88
2022/07/01 09:03:52;;;;;;;6.93;6.35;;;;;;;16.73;85.29;101006.25;5003623;28;20064;-86
2022/07/01 09:06:25;;;;;;;10.40;6.95;;;;;;;16.76;85.69;101008.78;4980752;28;20062;-87
2022/07/01 09:08:51;;;;;;;7.43;6.72;;;;;;;16.77;84.33;101014.97;4971718;28;20096;-87
2022/07/01 09:11:29;;;;;;;6.97;6.38;;;;;;;16.65;83.38;101019.69;4982257;28;20049;-88
2022/07/01 09:14:15;;;;;;;6.57;5.97;;;;;;;16.65;84.67;101021.47;4972453;28;20045;-87
2022/07/01 09:16:51;;;;;;;8.43;7.63;;;;;;;16.76;82.39;101026.44;4994319;28;20056;-88
2022/07/01 09:19:28;;;;;;;9.75;6.53;;;;;;;16.73;81.87;101023.91;4993971;28;20149;-87
2022/07/01 09:22:00;;;;;;;6.28;5.78;;;;;;;16.82;81.88;101031.56;4983128;28;20051;-87
2022/07/01 09:24:47;;;;;;;7.03;6.32;;;;;;;16.98;80.57;101043.44;5001476;28;20119;-87
2022/07/01 09:27:17;;;;;;;9.98;6.45;;;;;;;16.93;81.40;101047.97;4987090;28;20056;-87
2022/07/01 09:29:54;;;;;;;6.25;5.75;;;;;;;16.95;80.47;101053.25;5002922;28;20932;-87
2022/07/01 09:32:25;;;;;;;7.20;6.50;;;;;;;16.84;81.92;101046.47;4986803;28;20385;-87
2022/07/01 09:34:54;;;;;;;7.28;6.55;;;;;;;17.05;81.44;101045.91;4979903;28;20045;-88
2022/07/01 09:37:24;;;;;;;10.45;7.05;;;;;;;17.16;80.28;101051.75;4991827;28;20061;-87
2022/07/01 09:40:00;;;;;;;8.18;6.88;;;;;;;17.10;79.11;101047.47;4976215;28;20432;-87
2022/07/01 09:42:30;;;;;;;8.32;7.38;;;;;;;16.92;80.87;101053.31;4990036;28;20179;-85
2022/07/01 09:45:07;;;;;;;9.77;8.55;;;;;;;16.84;79.83;101048.22;4993085;28;20034;-87
2022/07/01 09:47:39;;;;;;;12.95;7.90;;;;;;;16.76;81.24;101060.81;4992748;28;20136;-86
2022/07/01 09:50:08;;;;;;;10.75;8.43;;;;;;;16.80;81.00;101062.44;4989651;28;20879;-87
2022/07/01 09:52:41;;;;;;;11.60;8.35;;;;;;;16.76;80.76;101053.72;4988998;28;20579;-88
2022/07/01 09:55:10;;;;;;;11.07;8.52;;;;;;;16.77;81.10;101054.63;4986116;28;20041;-88
2022/07/01 09:57:37;;;;;;;9.45;8.25;;;;;;;16.86;81.42;101060.50;4990940;28;20129;-90
2022/07/01 10:00:10;;;;;;;8.38;7.57;;;;;;;17.04;80.49;101068.84;4989964;28;20129;-87
2022/07/01 10:02:39;;;;;;;11.27;9.15;;;;;;;17.16;79.11;101060.53;4974291;28;20707;-87
2022/07/01 10:05:17;;;;;;;8.75;7.85;;;;;;;17.25;78.70;101063.81;4987772;28;20159;-86
2022/07/01 10:08:14;;;;;;;8.63;7.65;;;;;;;17.35;78.45;101059.97;4990253;28;20422;-86
2022/07/01 10:11:45;;;;;;;10.00;7.55;;;;;;;17.48;77.63;101071.94;4976419;28;20057;-91
2022/07/01 10:14:14;;;;;;;9.05;8.13;;;;;;;17.37;76.89;101076.69;4968906;28;20060;-88
2022/07/01 10:16:43;;;;;;;8.90;7.88;;;;;;;17.35;76.75;101074.09;4973728;28;20046;-89
2022/07/01 10:19:23;;;;;;;9.55;8.32;;;;;;;17.24;77.40;101072.69;4990841;28;20472;-88
2022/07/01 10:25:45;;;;;;;10.35;8.45;;;;;;;17.28;77.00;101066.38;5009856;28;20120;-89
2022/07/01 10:28:28;;;;;;;14.48;9.70;;;;;;;17.22;77.65;101064.75;4974067;28;20728;-86
2022/07/01 10:31:00;;;;;;;8.27;7.40;;;;;;;17.38;77.94;101065.19;4988453;28;20053;-89
2022/07/01 10:33:43;;;;;;;10.32;7.97;;;;;;;17.54;76.99;101068.22;4988307;28;20536;-87
2022/07/01 10:36:36;;;;;;;8.45;7.65;;;;;;;17.81;76.23;101070.91;5004707;28;20034;-86
2022/07/01 10:39:03;;;;;;;13.43;8.90;;;;;;;18.22;73.70;101066.03;4977531;28;20046;-88
2022/07/01 10:41:39;;;;;;;12.70;9.10;;;;;;;18.47;71.91;101066.06;5003030;28;20045;-87
2022/07/01 10:44:16;;;;;;;10.43;9.32;;;;;;;18.73;70.58;101069.53;4988010;28;20049;-86
2022/07/01 10:47:15;;;;;;;9.38;7.70;;;;;;;19.20;70.13;101055.44;4992120;28;20049;-89
2022/07/01 10:49:42;;;;;;;14.13;9.60;;;;;;;19.61;67.08;101039.66;4993872;28;20074;-88
2022/07/01 10:52:47;;;;;;;12.27;8.90;;;;;;;19.59;66.54;101052.13;4993227;28;20081;-87
2022/07/01 10:55:14;;;;;;;11.73;9.18;;;;;;;19.34;66.97;101046.94;5004314;28;20612;-90
2022/07/01 10:57:42;;;;;;;9.85;8.95;;;;;;;19.05;67.82;101042.78;4988730;28;20131;-87
2022/07/01 11:00:11;;;;;;;12.82;10.40;;;;;;;18.88;68.45;101048.66;4989937;28;20412;-87
2022/07/01 11:02:41;;;;;;;8.70;7.88;;;;;;;18.78;69.38;101056.97;5007016;28;20141;-88
2022/07/01 11:05:16;;;;;;;9.85;8.65;;;;;;;18.81;69.01;101054.22;4986689;28;20493;-86
2022/07/01 11:07:47;;;;;;;8.95;7.70;;;;;;;18.84;68.21;101056.75;4989653;28;20049;-87
2022/07/01 11:10:22;;;;;;;10.73;9.07;;;;;;;18.70;69.40;101052.88;4988375;28;20037;-88
2022/07/01 11:12:52;;;;;;;10.10;8.35;;;;;;;18.40;70.94;101053.91;4971283;28;20046;-86
2022/07/01 11:15:20;;;;;;;9.93;8.93;;;;;;;18.34;71.49;101051.47;4988150;28;20081;-88
2022/07/01 11:17:55;;;;;;;10.30;9.27;;;;;;;18.29;71.76;101064.03;4971617;28;20087;-88
2022/07/01 11:20:27;;;;;;;15.85;10.52;;;;;;;18.34;70.03;101060.31;4970471;28;20044;-87
2022/07/01 11:22:54;;;;;;;14.35;9.13;;;;;;;18.38;69.62;101061.06;4972077;28;20496;-88
2022/07/01 11:25:26;;;;;;;10.82;9.73;;;;;;;18.39;69.95;101057.50;4986083;28;20523;-86
2022/07/01 11:27:53;;;;;;;10.23;9.07;;;;;;;18.37;69.36;101059.34;4986842;28;20046;-89
2022/07/01 11:30:27;;;;;;;10.77;8.60;;;;;;;18.25;69.69;101065.94;4988239;28;20127;-87
2022/07/01 11:32:57;;;;;;;9.20;8.25;;;;;;;18.28;69.68;101068.47;4968915;28;20815;-87
2022/07/01 11:41:13;;;;;;;9.02;7.47;;;;;;;18.40;68.05;101063.69;4989249;28;20487;-86
2022/07/01 11:43:41;;;;;;;7.80;7.10;;;;;;;18.38;67.46;101069.00;4985399;28;20481;-88
2022/07/01 11:46:12;;;;;;;7.82;5.63;;;;;;;18.38;65.71;101084.91;4972348;28;20412;-87
2022/07/01 11:48:49;;;;;;;7.22;5.05;;;;;;;18.27;66.05;101087.94;4970920;28;20760;-88
2022/07/01 11:51:26;;;;;;;7.00;5.15;;;;;;;18.19;65.13;101093.50;4971346;28;20370;-89
2022/07/01 11:53:58;;;;;;;4.70;4.40;;;;;;;18.14;64.20;101090.13;4985397;28;20069;-89
2022/07/01 11:56:49;;;;;;;5.00;3.88;;;;;;;17.94;64.62;101088.16;4968422;28;20081;-88
2022/07/01 11:59:19;;;;;;;5.00;3.97;;;;;;;17.86;65.19;101079.56;4972682;28;20133;-88
2022/07/01 12:01:57;;;;;;;5.20;3.55;;;;;;;17.86;64.65;101077.78;4976057;28;20060;-89